createdAt,value
2018-07-27T00:01:47.180Z,7.53
2018-07-27T00:04:14.124Z,7.17
2018-07-27T00:06:40.987Z,6.33
2018-07-27T00:09:08.670Z,6.77
2018-07-27T00:11:35.520Z,6.37
2018-07-27T00:14:02.488Z,9.13
2018-07-27T00:16:29.452Z,6.90
2018-07-27T00:18:56.340Z,6.80
2018-07-27T00:21:24.037Z,6.57
2018-07-27T00:23:50.890Z,6.80
2018-07-27T00:26:17.987Z,6.47
2018-07-27T00:28:45.604Z,7.30
2018-07-27T00:31:12.448Z,7.13
2018-07-27T00:33:39.388Z,7.10
2018-07-27T00:36:06.264Z,6.17
2018-07-27T00:38:33.201Z,7.10
2018-07-27T00:41:00.092Z,6.70
2018-07-27T00:43:27.045Z,7.10
2018-07-27T00:45:53.921Z,6.87
2018-07-27T00:48:20.775Z,6.80
2018-07-27T00:50:47.732Z,6.70
2018-07-27T00:53:14.594Z,8.47
2018-07-27T00:55:42.269Z,5.90
2018-07-27T00:58:09.202Z,6.93
2018-07-27T01:00:36.096Z,6.40
2018-07-27T01:03:03.038Z,6.73
2018-07-27T01:05:29.908Z,6.10
2018-07-27T01:07:56.773Z,7.10
2018-07-27T01:10:24.486Z,6.13
2018-07-27T01:12:51.357Z,6.10
2018-07-27T01:15:18.301Z,7.43
2018-07-27T01:17:45.187Z,7.00
2018-07-27T01:20:12.886Z,7.03
2018-07-27T01:22:39.824Z,6.40
2018-07-27T01:25:06.678Z,5.80
2018-07-27T01:27:33.685Z,5.93
2018-07-27T01:30:01.305Z,5.90
2018-07-27T01:32:28.156Z,6.37
2018-07-27T01:34:55.200Z,5.67
2018-07-27T01:37:22.049Z,5.80
2018-07-27T01:39:48.914Z,6.60
2018-07-27T01:42:16.589Z,6.80
2018-07-27T01:44:43.453Z,6.87
2018-07-27T01:47:10.637Z,6.30
2018-07-27T01:49:37.485Z,8.60
2018-07-27T01:52:04.381Z,6.40
2018-07-27T01:54:31.312Z,6.17
2018-07-27T01:56:58.913Z,6.53
2018-07-27T01:59:26.054Z,6.43
2018-07-27T02:01:52.911Z,6.63
2018-07-27T02:04:19.763Z,8.07
2018-07-27T02:06:46.698Z,6.40
2018-07-27T02:09:13.617Z,6.33
2018-07-27T02:11:40.549Z,6.37
2018-07-27T02:14:08.141Z,7.40
2018-07-27T02:16:35.168Z,6.90
2018-07-27T02:19:02.793Z,6.50
2018-07-27T02:21:29.684Z,6.47
2018-07-27T02:23:56.636Z,5.83
2018-07-27T02:26:23.489Z,7.20
2018-07-27T02:28:50.518Z,6.20
2018-07-27T02:31:17.381Z,6.90
2018-07-27T02:33:44.298Z,6.47
2018-07-27T02:36:11.966Z,6.83
2018-07-27T02:38:38.818Z,6.57
2018-07-27T02:41:05.793Z,6.80
2018-07-27T02:43:32.658Z,6.53
2018-07-27T02:45:59.516Z,6.77
2018-07-27T02:48:26.457Z,7.73
2018-07-27T02:50:53.318Z,8.00
2018-07-27T02:53:21.003Z,6.73
2018-07-27T02:55:47.873Z,6.43
2018-07-27T02:58:14.739Z,6.20
2018-07-27T03:00:41.752Z,6.77
2018-07-27T03:03:08.632Z,8.00
2018-07-27T03:05:35.633Z,7.23
2018-07-27T03:08:02.521Z,7.97
2018-07-27T03:10:29.378Z,5.80
2018-07-27T03:12:56.309Z,6.30
2018-07-27T03:15:23.172Z,8.33
2018-07-27T03:17:50.101Z,6.50
2018-07-27T03:20:16.960Z,6.70
2018-07-27T03:22:43.925Z,7.20
2018-07-27T03:25:11.513Z,9.03
2018-07-27T03:27:38.366Z,7.53
2018-07-27T03:30:05.436Z,6.73
2018-07-27T03:32:32.298Z,7.13
2018-07-27T03:34:59.225Z,7.27
2018-07-27T03:37:26.101Z,7.37
2018-07-27T03:39:53.033Z,6.90
2018-07-27T03:42:19.875Z,6.80
2018-07-27T03:44:46.726Z,8.03
2018-07-27T03:47:13.661Z,7.23
2018-07-27T03:49:40.516Z,7.13
2018-07-27T03:52:07.513Z,6.80
2018-07-27T03:54:34.406Z,7.10
2018-07-27T03:57:01.334Z,7.57
2018-07-27T03:59:28.350Z,6.13
2018-07-27T04:01:55.198Z,10.07
2018-07-27T04:04:22.148Z,6.53
2018-07-27T04:06:49.034Z,6.77
2018-07-27T04:09:15.891Z,6.80
2018-07-27T04:11:43.610Z,11.83
2018-07-27T04:14:10.498Z,8.13
2018-07-27T04:16:38.212Z,7.20
2018-07-27T04:19:05.088Z,8.27
2018-07-27T04:21:31.960Z,7.10
2018-07-27T04:23:59.692Z,10.57
2018-07-27T04:26:26.773Z,7.07
2018-07-27T04:29:09.264Z,7.80
2018-07-27T04:31:37.592Z,7.03
2018-07-27T04:34:04.641Z,6.53
2018-07-27T04:36:31.484Z,7.50
2018-07-27T04:38:58.340Z,7.27
2018-07-27T04:41:25.292Z,7.93
2018-07-27T04:43:52.156Z,7.53
2018-07-27T04:46:19.108Z,7.63
2018-07-27T04:48:46.109Z,7.33
2018-07-27T04:51:13.047Z,7.57
2018-07-27T04:53:39.992Z,7.57
2018-07-27T04:56:06.852Z,7.13
2018-07-27T04:58:33.799Z,8.33
2018-07-27T05:01:00.723Z,5.80
2018-07-27T05:03:27.673Z,7.53
2018-07-27T05:05:54.528Z,8.47
2018-07-27T05:08:21.372Z,7.20
2018-07-27T05:10:48.324Z,8.63
2018-07-27T05:13:15.192Z,9.07
2018-07-27T05:15:42.200Z,7.83
2018-07-27T05:18:09.084Z,6.83
2018-07-27T05:20:35.948Z,7.23
2018-07-27T05:23:02.893Z,7.33
2018-07-27T05:25:29.744Z,7.37
2018-07-27T05:27:57.462Z,6.97
2018-07-27T05:30:24.329Z,8.20
2018-07-27T05:32:51.204Z,7.00
2018-07-27T05:35:18.145Z,8.10
2018-07-27T05:37:45.005Z,7.20
2018-07-27T05:40:12.013Z,7.60
2018-07-27T05:42:38.879Z,7.40
2018-07-27T05:45:05.832Z,7.50
2018-07-27T05:47:33.500Z,7.37
2018-07-27T05:50:00.367Z,8.00
2018-07-27T05:52:27.550Z,8.60
2018-07-27T05:54:54.411Z,10.63
2018-07-27T05:57:21.333Z,7.90
2018-07-27T05:59:48.345Z,8.50
2018-07-27T06:02:15.224Z,8.40
2018-07-27T06:04:42.186Z,7.70
2018-07-27T06:07:09.120Z,7.80
2018-07-27T06:09:36.239Z,8.80
2018-07-27T06:12:03.185Z,10.10
2018-07-27T06:14:30.060Z,9.93
2018-07-27T06:16:57.086Z,9.10
2018-07-27T06:19:23.947Z,8.20
2018-07-27T06:21:50.965Z,9.00
2018-07-27T06:24:17.867Z,8.27
2018-07-27T06:26:44.711Z,8.30
2018-07-27T06:29:11.659Z,9.13
2018-07-27T06:31:39.263Z,8.60
2018-07-27T06:34:06.268Z,8.83
2018-07-27T06:36:33.128Z,9.57
2018-07-27T06:39:00.730Z,9.07
2018-07-27T06:41:27.675Z,8.90
2018-07-27T06:43:54.540Z,9.33
2018-07-27T06:46:21.508Z,9.27
2018-07-27T06:48:48.369Z,7.30
2018-07-27T06:51:16.028Z,8.63
2018-07-27T06:53:43.717Z,9.50
2018-07-27T06:56:10.584Z,8.37
2018-07-27T06:58:37.529Z,8.37
2018-07-27T07:01:04.508Z,8.73
2018-07-27T07:03:31.387Z,9.83
2018-07-27T07:05:58.339Z,9.60
2018-07-27T07:08:25.184Z,9.60
2018-07-27T07:10:52.167Z,9.77
2018-07-27T07:13:19.016Z,8.70
2018-07-27T07:15:45.868Z,8.70
2018-07-27T07:18:12.844Z,8.80
2018-07-27T07:20:40.476Z,8.87
2018-07-27T07:23:07.423Z,9.37
2018-07-27T07:25:34.431Z,8.87
2018-07-27T07:28:01.178Z,8.97
2018-07-27T07:30:28.120Z,9.63
2018-07-27T07:32:54.979Z,9.20
2018-07-27T07:35:21.928Z,9.50
2018-07-27T07:37:48.777Z,9.07
2018-07-27T07:40:15.648Z,9.50
2018-07-27T07:42:42.578Z,9.57
2018-07-27T07:45:09.539Z,8.47
2018-07-27T07:47:36.785Z,9.13
2018-07-27T07:50:03.668Z,13.20
2018-07-27T07:52:30.515Z,9.70
2018-07-27T07:54:57.456Z,9.50
2018-07-27T07:57:24.369Z,9.60
2018-07-27T07:59:51.336Z,8.70
2018-07-27T08:02:18.302Z,9.80
2018-07-27T08:04:45.166Z,9.03
2018-07-27T08:07:12.101Z,9.30
2018-07-27T08:09:38.948Z,9.20
2018-07-27T08:12:05.858Z,9.90
2018-07-27T08:14:32.853Z,9.20
2018-07-27T08:16:59.749Z,10.40
2018-07-27T08:19:27.345Z,9.03
2018-07-27T08:21:54.284Z,9.67
2018-07-27T08:24:21.144Z,8.97
2018-07-27T08:26:48.116Z,9.60
2018-07-27T08:29:15.032Z,9.87
2018-07-27T08:31:41.907Z,9.23
2018-07-27T08:34:08.948Z,9.87
2018-07-27T08:36:35.873Z,10.30
2018-07-27T08:39:02.999Z,8.43
2018-07-27T08:41:29.851Z,9.30
2018-07-27T08:43:56.692Z,10.23
2018-07-27T08:46:23.630Z,10.00
2018-07-27T08:48:50.502Z,9.43
2018-07-27T08:51:17.442Z,9.17
2018-07-27T08:53:44.321Z,8.80
2018-07-27T08:56:11.185Z,9.60
2018-07-27T08:58:38.860Z,9.60
2018-07-27T09:01:06.685Z,9.57
2018-07-27T09:03:33.631Z,9.30
2018-07-27T09:06:00.546Z,9.63
2018-07-27T09:08:27.417Z,9.73
2018-07-27T09:10:54.438Z,9.40
2018-07-27T09:13:21.300Z,8.37
2018-07-27T09:15:48.251Z,9.27
2018-07-27T09:18:15.141Z,9.77
2018-07-27T09:20:42.118Z,9.40
2018-07-27T09:23:08.972Z,9.40
2018-07-27T09:25:35.821Z,9.60
2018-07-27T09:28:02.798Z,10.17
2018-07-27T09:30:29.656Z,9.23
2018-07-27T09:32:57.297Z,9.30
2018-07-27T09:35:24.295Z,9.73
2018-07-27T09:37:51.180Z,9.67
2018-07-27T09:40:18.176Z,9.57
2018-07-27T09:42:45.041Z,9.67
2018-07-27T09:45:11.900Z,10.40
2018-07-27T09:47:38.845Z,9.67
2018-07-27T09:50:05.705Z,10.30
2018-07-27T09:52:32.656Z,9.83
2018-07-27T09:54:59.513Z,8.77
2018-07-27T09:57:26.589Z,9.77
2018-07-27T09:59:53.459Z,9.80
2018-07-27T10:02:20.396Z,9.57
2018-07-27T10:04:47.336Z,9.80
2018-07-27T10:07:14.184Z,9.70
2018-07-27T10:09:41.117Z,9.63
2018-07-27T10:12:07.976Z,9.20
2018-07-27T10:14:34.906Z,10.03
2018-07-27T10:17:01.754Z,8.60
2018-07-27T10:19:28.701Z,9.70
2018-07-27T10:21:55.549Z,9.00
2018-07-27T10:24:22.392Z,9.40
2018-07-27T10:26:49.329Z,9.37
2018-07-27T10:29:16.182Z,9.00
2018-07-27T10:31:43.144Z,10.50
2018-07-27T10:34:10.000Z,9.60
2018-07-27T10:36:36.858Z,9.13
2018-07-27T10:39:03.961Z,8.80
2018-07-27T10:41:30.824Z,8.53
2018-07-27T10:43:57.777Z,8.90
2018-07-27T10:46:24.648Z,10.50
2018-07-27T10:48:51.584Z,9.47
2018-07-27T10:51:18.525Z,8.97
2018-07-27T10:53:45.399Z,9.07
2018-07-27T10:56:13.100Z,8.90
2018-07-27T10:58:39.949Z,8.30
2018-07-27T11:01:06.868Z,9.10
2018-07-27T11:03:34.621Z,9.00
2018-07-27T11:06:02.227Z,8.27
2018-07-27T11:08:29.192Z,9.77
2018-07-27T11:10:56.035Z,8.67
2018-07-27T11:13:22.903Z,10.60
2018-07-27T11:15:49.916Z,8.60
2018-07-27T11:18:16.812Z,8.80
2018-07-27T11:20:44.533Z,9.37
2018-07-27T11:23:11.417Z,9.17
2018-07-27T11:25:39.050Z,8.40
2018-07-27T11:28:06.016Z,10.07
2018-07-27T11:30:32.883Z,9.30
2018-07-27T11:33:00.583Z,10.20
2018-07-27T11:35:27.433Z,8.67
2018-07-27T11:37:54.291Z,8.73
2018-07-27T11:40:21.277Z,8.33
2018-07-27T11:42:48.928Z,14.37
2018-07-27T11:45:16.590Z,7.60
2018-07-27T11:47:44.298Z,8.47
2018-07-27T11:50:11.164Z,8.53
2018-07-27T11:52:38.087Z,7.70
2018-07-27T11:55:05.044Z,7.40
2018-07-27T11:57:31.900Z,8.90
2018-07-27T11:59:58.856Z,8.40
2018-07-27T12:02:25.724Z,7.63
2018-07-27T12:04:53.406Z,8.30
2018-07-27T12:07:20.351Z,7.90
2018-07-27T12:09:47.200Z,8.67
2018-07-27T12:12:14.172Z,8.13
2018-07-27T12:14:41.049Z,8.63
2018-07-27T12:17:07.948Z,8.20
2018-07-27T12:19:34.885Z,8.10
2018-07-27T12:22:01.743Z,8.53
2018-07-27T12:24:28.711Z,8.20
2018-07-27T12:26:55.622Z,7.20
2018-07-27T12:29:22.468Z,7.27
2018-07-27T12:31:49.398Z,8.60
2018-07-27T12:34:16.258Z,7.33
2018-07-27T12:36:43.240Z,7.73
2018-07-27T12:39:10.149Z,7.10
2018-07-27T12:41:37.056Z,6.77
2018-07-27T12:44:04.764Z,7.87
2018-07-27T12:46:31.620Z,6.27
2018-07-27T12:48:58.568Z,7.93
2018-07-27T12:51:25.525Z,7.17
2018-07-27T12:53:52.377Z,7.20
2018-07-27T12:56:19.309Z,6.90
2018-07-27T12:58:46.193Z,6.73
2018-07-27T13:01:13.953Z,6.83
2018-07-27T13:03:40.992Z,7.37
2018-07-27T13:06:08.601Z,7.27
2018-07-27T13:08:35.527Z,7.87
2018-07-27T13:11:02.435Z,7.40
2018-07-27T13:13:29.403Z,7.60
2018-07-27T13:15:57.105Z,8.43
2018-07-27T13:18:23.989Z,8.40
2018-07-27T13:20:50.960Z,7.87
2018-07-27T13:23:18.573Z,7.87
2018-07-27T13:25:45.561Z,7.23
2018-07-27T13:28:13.148Z,8.40
2018-07-27T13:30:40.002Z,7.80
2018-07-27T13:33:06.953Z,6.73
2018-07-27T13:38:00.636Z,7.23
2018-07-27T13:40:27.491Z,7.60
2018-07-27T13:42:54.480Z,7.47
2018-07-27T13:45:21.328Z,7.37
2018-07-27T13:47:48.169Z,7.80
2018-07-27T13:50:15.127Z,8.00
2018-07-27T13:52:42.715Z,8.80
2018-07-27T13:55:09.668Z,7.63
2018-07-27T13:57:36.558Z,7.47
2018-07-27T14:00:03.523Z,6.90
2018-07-27T14:02:30.493Z,7.60
2018-07-27T14:04:57.445Z,6.83
2018-07-27T14:07:24.422Z,7.00
2018-07-27T14:09:51.276Z,7.03
2018-07-27T14:12:18.202Z,7.53
2018-07-27T14:14:45.148Z,7.70
2018-07-27T14:17:12.038Z,6.83
2018-07-27T14:19:38.999Z,7.93
2018-07-27T14:22:05.900Z,8.20
2018-07-27T14:24:32.781Z,7.53
2018-07-27T14:27:00.485Z,7.90
2018-07-27T14:29:27.364Z,7.50
2018-07-27T14:31:54.336Z,8.07
2018-07-27T14:34:21.208Z,8.30
2018-07-27T14:36:48.091Z,8.00
2018-07-27T14:39:15.174Z,7.33
2018-07-27T14:41:42.827Z,6.97
2018-07-27T14:44:09.779Z,7.50
2018-07-27T14:46:36.668Z,6.83
2018-07-27T14:49:03.608Z,7.40
2018-07-27T14:51:30.586Z,7.70
2018-07-27T14:53:57.442Z,7.67
2018-07-27T14:56:24.429Z,7.10
2018-07-27T14:58:51.299Z,6.53
2018-07-27T15:01:18.216Z,8.00
2018-07-27T15:03:45.155Z,7.27
2018-07-27T15:06:12.032Z,7.00
2018-07-27T15:08:38.975Z,7.60
2018-07-27T15:11:05.836Z,7.87
2018-07-27T15:13:32.712Z,7.13
2018-07-27T15:16:00.429Z,8.67
2018-07-27T15:18:27.301Z,7.63
2018-07-27T15:20:54.283Z,7.17
2018-07-27T15:23:21.191Z,7.83
2018-07-27T15:25:48.060Z,7.70
2018-07-27T15:28:15.741Z,7.83
2018-07-27T15:30:42.604Z,7.97
2018-07-27T15:33:09.553Z,7.90
2018-07-27T15:35:36.412Z,6.60
2018-07-27T15:38:03.406Z,8.13
2018-07-27T15:40:31.128Z,8.27
2018-07-27T15:42:58.030Z,7.80
2018-07-27T15:45:24.977Z,7.50
2018-07-27T15:47:51.829Z,7.30
2018-07-27T15:50:18.696Z,8.03
2018-07-27T15:52:45.663Z,7.30
2018-07-27T15:55:12.584Z,7.70
2018-07-27T15:57:39.536Z,6.77
2018-07-27T16:00:06.479Z,7.53
2018-07-27T16:02:33.329Z,7.10
2018-07-27T16:05:00.499Z,7.17
2018-07-27T16:07:27.352Z,7.33
2018-07-27T16:09:54.296Z,10.93
2018-07-27T16:12:21.184Z,8.33
2018-07-27T16:14:48.119Z,7.70
2018-07-27T16:17:14.976Z,8.23
2018-07-27T16:19:41.832Z,8.10
2018-07-27T16:22:08.793Z,7.43
2018-07-27T16:24:35.645Z,7.47
2018-07-27T16:27:02.656Z,8.00
2018-07-27T16:29:29.505Z,8.63
2018-07-27T16:31:56.396Z,7.23
2018-07-27T16:34:23.400Z,7.30
2018-07-27T16:36:50.272Z,7.63
2018-07-27T16:39:17.401Z,7.50
2018-07-27T16:41:44.276Z,8.13
2018-07-27T16:44:11.135Z,8.70
2018-07-27T16:46:38.833Z,8.00
2018-07-27T16:49:05.677Z,7.30
2018-07-27T16:51:32.618Z,7.77
2018-07-27T16:53:59.505Z,7.23
2018-07-27T16:56:26.454Z,7.20
2018-07-27T16:58:53.309Z,8.43
2018-07-27T17:01:20.166Z,7.20
2018-07-27T17:03:47.096Z,6.90
2018-07-27T17:06:13.994Z,6.57
2018-07-27T17:08:40.956Z,7.80
2018-07-27T17:11:07.971Z,6.53
2018-07-27T17:13:34.828Z,8.30
2018-07-27T17:16:01.781Z,7.17
2018-07-27T17:18:28.661Z,7.47
2018-07-27T17:20:55.600Z,7.17
2018-07-27T17:23:22.449Z,7.30
2018-07-27T17:25:49.382Z,7.57
2018-07-27T17:28:16.329Z,7.47
2018-07-27T17:30:43.173Z,6.80
2018-07-27T17:33:10.128Z,7.13
2018-07-27T17:35:36.988Z,7.20
2018-07-27T17:38:04.036Z,6.80
2018-07-27T17:40:31.884Z,7.53
2018-07-27T17:42:58.786Z,7.73
2018-07-27T17:45:25.779Z,7.10
2018-07-27T17:47:52.640Z,6.37
2018-07-27T17:50:19.595Z,7.03
2018-07-27T17:52:47.266Z,7.87
2018-07-27T17:55:14.181Z,6.90
2018-07-27T17:57:41.194Z,7.27
2018-07-27T18:00:08.118Z,6.83
2018-07-27T18:02:35.077Z,7.67
2018-07-27T18:05:01.961Z,7.70
2018-07-27T18:07:28.935Z,7.50
2018-07-27T18:09:55.816Z,8.17
2018-07-27T18:12:22.685Z,8.73
2018-07-27T18:14:49.640Z,7.67
2018-07-27T18:17:16.505Z,7.70
2018-07-27T18:19:44.137Z,7.17
2018-07-27T18:22:11.137Z,7.60
2018-07-27T18:24:38.004Z,7.70
2018-07-27T18:27:04.993Z,7.80
2018-07-27T18:29:31.932Z,7.80
2018-07-27T18:31:58.892Z,7.40
2018-07-27T18:34:25.749Z,8.27
2018-07-27T18:36:53.364Z,8.20
2018-07-27T18:39:20.317Z,8.23
2018-07-27T18:41:47.257Z,8.57
2018-07-27T18:44:14.253Z,7.27
2018-07-27T18:46:41.120Z,7.20
2018-07-27T18:49:07.972Z,8.13
2018-07-27T18:51:34.924Z,8.27
2018-07-27T18:54:01.834Z,7.50
2018-07-27T18:56:28.813Z,7.70
2018-07-27T18:58:55.684Z,8.07
2018-07-27T19:01:22.701Z,7.70
2018-07-27T19:03:49.585Z,8.63
2018-07-27T19:06:16.444Z,9.30
2018-07-27T19:08:43.364Z,8.13
2018-07-27T19:11:10.224Z,8.10
2018-07-27T19:13:37.221Z,7.27
2018-07-27T19:16:04.130Z,7.53
2018-07-27T19:18:31.725Z,7.83
2018-07-27T19:20:58.665Z,8.30
2018-07-27T19:23:25.559Z,9.13
2018-07-27T19:25:53.271Z,8.73
2018-07-27T19:28:20.140Z,8.17
2018-07-27T19:30:46.999Z,8.10
2018-07-27T19:33:13.996Z,9.20
2018-07-27T19:35:40.900Z,8.30
2018-07-27T19:38:07.851Z,8.93
2018-07-27T19:40:34.715Z,9.50
2018-07-27T19:43:02.433Z,9.40
2018-07-27T19:45:29.366Z,9.80
2018-07-27T19:47:56.248Z,8.73
2018-07-27T19:50:23.164Z,9.17
2018-07-27T19:52:50.142Z,7.40
2018-07-27T19:55:16.993Z,9.47
2018-07-27T19:57:43.946Z,8.77
2018-07-27T20:00:11.617Z,8.70
2018-07-27T20:02:39.232Z,8.97
2018-07-27T20:05:06.224Z,8.90
2018-07-27T20:07:33.142Z,8.50
2018-07-27T20:10:00.151Z,9.63
2018-07-27T20:12:27.265Z,10.07
2018-07-27T20:14:54.140Z,8.87
2018-07-27T20:17:21.084Z,10.00
2018-07-27T20:19:47.932Z,9.10
2018-07-27T20:22:14.884Z,10.80
2018-07-27T20:24:41.725Z,9.23
2018-07-27T20:27:08.581Z,9.03
2018-07-27T20:29:35.572Z,8.63
2018-07-27T20:32:03.181Z,9.30
2018-07-27T20:34:30.126Z,9.80
2018-07-27T20:36:57.003Z,9.07
2018-07-27T20:39:23.874Z,10.20
2018-07-27T20:41:50.940Z,9.53
2018-07-27T20:44:17.796Z,8.93
2018-07-27T20:46:44.821Z,8.90
2018-07-27T20:49:12.401Z,9.00
2018-07-27T20:51:39.258Z,8.83
2018-07-27T20:54:06.193Z,8.73
2018-07-27T20:56:33.109Z,8.50
2018-07-27T20:59:00.105Z,8.13
2018-07-27T21:01:26.962Z,8.20
2018-07-27T21:03:53.827Z,8.53
2018-07-27T21:06:21.520Z,8.00
2018-07-27T21:08:48.377Z,8.63
2018-07-27T21:11:15.292Z,9.20
2018-07-27T21:13:42.229Z,8.97
2018-07-27T21:16:09.833Z,9.23
2018-07-27T21:18:36.700Z,8.67
2018-07-27T21:21:03.657Z,9.07
2018-07-27T21:23:30.528Z,8.97
2018-07-27T21:25:57.365Z,8.90
2018-07-27T21:28:24.329Z,9.23
2018-07-27T21:30:51.927Z,8.37
2018-07-27T21:33:18.800Z,8.90
2018-07-27T21:35:45.753Z,8.73
2018-07-27T21:38:12.619Z,8.93
2018-07-27T21:40:40.916Z,8.37
2018-07-27T21:43:07.945Z,7.83
2018-07-27T21:45:35.642Z,9.03
2018-07-27T21:48:02.545Z,8.73
2018-07-27T21:50:30.180Z,8.70
2018-07-27T21:52:57.123Z,8.37
2018-07-27T21:55:23.964Z,9.10
2018-07-27T21:57:50.897Z,8.43
2018-07-27T22:00:17.804Z,8.47
2018-07-27T22:02:44.739Z,9.10
2018-07-27T22:05:12.368Z,8.77
2018-07-27T22:07:39.232Z,8.17
2018-07-27T22:10:06.230Z,9.30
2018-07-27T22:12:33.128Z,8.63
2018-07-27T22:15:00.058Z,9.97
2018-07-27T22:17:26.933Z,9.50
2018-07-27T22:19:54.601Z,10.63
2018-07-27T22:22:21.525Z,9.97
2018-07-27T22:24:49.120Z,8.60
2018-07-27T22:27:16.048Z,8.80
2018-07-27T22:29:42.908Z,8.93
2018-07-27T22:32:09.837Z,11.10
2018-07-27T22:34:37.431Z,9.30
2018-07-27T22:37:04.380Z,9.33
2018-07-27T22:39:31.243Z,8.90
2018-07-27T22:41:58.088Z,10.37
2018-07-27T22:44:25.098Z,9.00
2018-07-27T22:46:52.061Z,10.37
2018-07-27T22:49:19.041Z,10.07
2018-07-27T22:51:45.898Z,10.90
2018-07-27T22:54:12.821Z,9.60
2018-07-27T22:56:39.696Z,8.97
2018-07-27T22:59:07.309Z,8.50
2018-07-27T23:01:34.319Z,9.10
2018-07-27T23:04:01.197Z,9.13
2018-07-27T23:06:28.164Z,10.20
2018-07-27T23:08:55.049Z,9.07
2018-07-27T23:11:22.015Z,9.53
2018-07-27T23:13:49.015Z,9.47
2018-07-27T23:16:15.882Z,9.60
2018-07-27T23:18:43.572Z,9.73
2018-07-27T23:21:10.441Z,9.57
2018-07-27T23:23:37.303Z,10.57
2018-07-27T23:26:04.280Z,8.90
2018-07-27T23:28:31.873Z,8.80
2018-07-27T23:30:58.828Z,9.03
2018-07-27T23:33:25.677Z,9.53
2018-07-27T23:35:52.537Z,11.33
2018-07-27T23:38:19.448Z,9.50
2018-07-27T23:40:46.342Z,9.43
2018-07-27T23:43:13.318Z,10.40
2018-07-27T23:45:40.295Z,11.00
2018-07-27T23:48:07.264Z,10.10
2018-07-27T23:50:34.132Z,10.07
2018-07-27T23:53:01.729Z,9.87
2018-07-27T23:55:28.648Z,9.30
2018-07-27T23:57:56.236Z,9.93
